Time,TemperatureF,DewpointF,PressureIn,WindDirection,WindDirectionDegrees,WindSpeedMPH,WindSpeedGustMPH,Humidity,HourlyPrecipIn,Conditions,Clouds,dailyrainin,SolarRadiationWatts/m^2,SoftwareType,DateUTC
2013-07-01 00:02:00,70.0,48.0,30.04,ESE,117,3.0,-999.0,45,-99.99,,,-99.99,0.000000,,2013-07-01 06:02:00,
2013-07-01 00:12:00,70.0,50.0,30.04,SE,128,1.0,-999.0,49,-99.99,,,-99.99,0.000000,,2013-07-01 06:12:00,
2013-07-01 00:24:00,70.0,50.0,30.04,SE,128,1.0,-999.0,49,-99.99,,,-99.99,0.000000,,2013-07-01 06:24:00,
2013-07-01 00:33:00,68.0,50.0,30.05,WNW,284,1.0,-999.0,53,-99.99,,,-99.99,0.000000,,2013-07-01 06:33:00,
2013-07-01 00:43:00,67.0,48.0,30.05,WNW,284,0.0,-999.0,51,-99.99,,,-99.99,0.000000,,2013-07-01 06:43:00,
2013-07-01 00:53:00,67.0,48.0,30.05,WNW,284,0.0,-999.0,51,-99.99,,,-99.99,0.000000,,2013-07-01 06:53:00,
2013-07-01 01:01:00,66.0,51.0,30.05,West,262,0.0,-999.0,58,-99.99,,,-99.99,0.000000,,2013-07-01 07:01:00,
2013-07-01 01:11:00,65.0,50.0,30.05,West,261,0.0,-999.0,59,-99.99,,,-99.99,0.000000,,2013-07-01 07:11:00,
2013-07-01 01:22:00,65.0,50.0,30.05,West,261,0.0,-999.0,59,-99.99,,,-99.99,0.000000,,2013-07-01 07:22:00,
2013-07-01 01:33:00,65.0,51.0,30.05,West,260,0.0,-999.0,60,-99.99,,,-99.99,0.000000,,2013-07-01 07:33:00,
2013-07-01 01:43:00,65.0,50.0,30.06,West,265,0.0,-999.0,58,-99.99,,,-99.99,0.000000,,2013-07-01 07:43:00,
2013-07-01 01:53:00,65.0,50.0,30.06,West,265,0.0,-999.0,58,-99.99,,,-99.99,0.000000,,2013-07-01 07:53:00,
2013-07-01 02:01:00,64.0,50.0,30.06,West,268,0.0,-999.0,60,-99.99,,,-99.99,0.000000,,2013-07-01 08:01:00,
2013-07-01 02:11:00,63.0,50.0,30.05,West,268,0.0,-999.0,63,-99.99,,,-99.99,0.000000,,2013-07-01 08:11:00,
2013-07-01 02:22:00,63.0,50.0,30.05,West,268,0.0,-999.0,63,-99.99,,,-99.99,0.000000,,2013-07-01 08:22:00,
2013-07-01 02:33:00,60.0,49.0,30.06,NE,37,4.0,-999.0,68,-99.99,,,-99.99,0.000000,,2013-07-01 08:33:00,
2013-07-01 02:42:00,60.0,51.0,30.05,North,350,3.0,-999.0,71,-99.99,,,-99.99,0.000000,,2013-07-01 08:42:00,
2013-07-01 02:52:00,60.0,51.0,30.05,North,350,3.0,-999.0,71,-99.99,,,-99.99,0.000000,,2013-07-01 08:52:00,
2013-07-01 03:02:00,60.0,51.0,30.06,NNW,340,3.0,-999.0,72,-99.99,,,-99.99,0.000000,,2013-07-01 09:02:00,
2013-07-01 03:11:00,59.0,50.0,30.06,NNW,341,3.0,-999.0,72,-99.99,,,-99.99,0.000000,,2013-07-01 09:11:00,
2013-07-01 03:22:00,59.0,50.0,30.06,NNW,341,3.0,-999.0,72,-99.99,,,-99.99,0.000000,,2013-07-01 09:22:00,
2013-07-01 03:34:00,59.0,51.0,30.06,NNW,348,3.0,-999.0,74,-99.99,,,-99.99,0.000000,,2013-07-01 09:34:00,
2013-07-01 03:43:00,59.0,51.0,30.06,North,5,4.0,-999.0,74,-99.99,,,-99.99,0.000000,,2013-07-01 09:43:00,
2013-07-01 03:53:00,59.0,51.0,30.06,North,5,4.0,-999.0,74,-99.99,,,-99.99,0.000000,,2013-07-01 09:53:00,
2013-07-01 04:03:00,59.0,51.0,30.07,NNE,13,4.0,-999.0,74,-99.99,,,-99.99,0.000000,,2013-07-01 10:03:00,
2013-07-01 04:11:00,59.0,51.0,30.07,North,355,4.0,-999.0,75,-99.99,,,-99.99,0.000000,,2013-07-01 10:11:00,
2013-07-01 04:22:00,59.0,51.0,30.07,North,355,4.0,-999.0,75,-99.99,,,-99.99,0.000000,,2013-07-01 10:22:00,
2013-07-01 04:33:00,58.0,50.0,30.08,NNE,23,4.0,-999.0,76,-99.99,,,-99.99,0.000000,,2013-07-01 10:33:00,
2013-07-01 04:42:00,59.0,51.0,30.08,North,355,2.0,-999.0,75,-99.99,,,-99.99,0.000000,,2013-07-01 10:42:00,
2013-07-01 04:52:00,59.0,51.0,30.08,North,355,2.0,-999.0,75,-99.99,,,-99.99,0.000000,,2013-07-01 10:52:00,
2013-07-01 05:02:00,59.0,51.0,30.08,NNW,346,1.0,-999.0,75,-99.99,,,-99.99,0.000000,,2013-07-01 11:02:00,
2013-07-01 05:11:00,58.0,50.0,30.09,North,355,3.0,-999.0,75,-99.99,,,-99.99,0.000000,,2013-07-01 11:11:00,
2013-07-01 05:22:00,58.0,50.0,30.09,North,355,3.0,-999.0,75,-99.99,,,-99.99,0.000000,,2013-07-01 11:22:00,
2013-07-01 05:33:00,57.0,50.0,30.09,NE,38,5.0,-999.0,76,-99.99,,,-99.99,0.000000,,2013-07-01 11:33:00,
2013-07-01 05:43:00,57.0,51.0,30.09,NE,39,4.0,-999.0,79,-99.99,,,-99.99,0.000000,,2013-07-01 11:43:00,
2013-07-01 05:52:00,57.0,51.0,30.09,NE,39,4.0,-999.0,79,-99.99,,,-99.99,0.000000,,2013-07-01 11:52:00,
2013-07-01 06:01:00,57.0,51.0,30.10,North,5,3.0,-999.0,80,-99.99,,,-99.99,5.000000,,2013-07-01 12:01:00,
2013-07-01 06:11:00,57.0,51.0,30.10,North,360,0.0,-999.0,81,-99.99,,,-99.99,12.000000,,2013-07-01 12:11:00,
2013-07-01 06:22:00,57.0,51.0,30.10,North,360,0.0,-999.0,81,-99.99,,,-99.99,12.000000,,2013-07-01 12:22:00,
2013-07-01 06:33:00,58.0,52.0,30.11,North,360,0.0,-999.0,80,-99.99,,,-99.99,25.000000,,2013-07-01 12:33:00,
2013-07-01 06:43:00,59.0,52.0,30.11,North,360,0.0,-999.0,78,-99.99,,,-99.99,49.000000,,2013-07-01 12:43:00,
2013-07-01 06:53:00,59.0,52.0,30.11,North,360,0.0,-999.0,78,-99.99,,,-99.99,49.000000,,2013-07-01 12:53:00,
2013-07-01 07:01:00,60.0,51.0,30.10,North,360,0.0,-999.0,73,-99.99,,,-99.99,91.000000,,2013-07-01 13:01:00,
2013-07-01 07:12:00,62.0,52.0,30.11,North,355,0.0,-999.0,69,-99.99,,,-99.99,139.000000,,2013-07-01 13:12:00,
2013-07-01 07:23:00,62.0,52.0,30.11,North,355,0.0,-999.0,69,-99.99,,,-99.99,139.000000,,2013-07-01 13:23:00,
2013-07-01 07:33:00,63.0,52.0,30.11,NNE,13,0.0,-999.0,68,-99.99,,,-99.99,190.000000,,2013-07-01 13:33:00,
2013-07-01 07:43:00,64.0,53.0,30.11,North,355,1.0,-999.0,68,-99.99,,,-99.99,232.000000,,2013-07-01 13:43:00,
2013-07-01 07:53:00,64.0,53.0,30.11,North,355,1.0,-999.0,68,-99.99,,,-99.99,232.000000,,2013-07-01 13:53:00,
2013-07-01 08:01:00,65.0,54.0,30.12,North,355,2.0,-999.0,67,-99.99,,,-99.99,279.000000,,2013-07-01 14:01:00,
2013-07-01 08:11:00,67.0,54.0,30.12,NNW,336,0.0,-999.0,64,-99.99,,,-99.99,323.000000,,2013-07-01 14:11:00,
2013-07-01 08:22:00,67.0,54.0,30.12,NNW,336,0.0,-999.0,64,-99.99,,,-99.99,323.000000,,2013-07-01 14:22:00,
2013-07-01 08:34:00,69.0,54.0,30.11,NW,305,0.0,-999.0,59,-99.99,,,-99.99,371.000000,,2013-07-01 14:34:00,
2013-07-01 08:43:00,70.0,53.0,30.11,WNW,292,0.0,-999.0,55,-99.99,,,-99.99,415.000000,,2013-07-01 14:43:00,
2013-07-01 08:52:00,70.0,53.0,30.11,WNW,292,0.0,-999.0,55,-99.99,,,-99.99,415.000000,,2013-07-01 14:52:00,
2013-07-01 09:02:00,72.0,50.0,30.11,WNW,284,0.0,-999.0,46,-99.99,,,-99.99,466.000000,,2013-07-01 15:02:00,
2013-07-01 09:11:00,73.0,50.0,30.11,WSW,239,1.0,-999.0,44,-99.99,,,-99.99,504.000000,,2013-07-01 15:11:00,
2013-07-01 09:23:00,73.0,50.0,30.11,WSW,239,1.0,-999.0,44,-99.99,,,-99.99,504.000000,,2013-07-01 15:23:00,
2013-07-01 09:34:00,74.0,51.0,30.11,SW,226,0.0,-999.0,45,-99.99,,,-99.99,552.000000,,2013-07-01 15:34:00,
2013-07-01 09:43:00,75.0,50.0,30.11,WSW,244,0.0,-999.0,42,-99.99,,,-99.99,592.000000,,2013-07-01 15:43:00,
2013-07-01 09:52:00,75.0,50.0,30.11,WSW,244,0.0,-999.0,42,-99.99,,,-99.99,592.000000,,2013-07-01 15:52:00,
2013-07-01 10:01:00,76.0,51.0,30.11,WSW,242,0.0,-999.0,42,-99.99,,,-99.99,638.000000,,2013-07-01 16:01:00,
2013-07-01 10:11:00,78.0,51.0,30.11,North,9,1.0,-999.0,39,-99.99,,,-99.99,675.000000,,2013-07-01 16:11:00,
2013-07-01 10:22:00,78.0,51.0,30.11,North,9,1.0,-999.0,39,-99.99,,,-99.99,675.000000,,2013-07-01 16:22:00,
2013-07-01 10:33:00,78.0,50.0,30.10,NNE,14,3.0,-999.0,38,-99.99,,,-99.99,715.000000,,2013-07-01 16:33:00,
2013-07-01 10:44:00,78.0,50.0,30.10,NNE,14,3.0,-999.0,38,-99.99,,,-99.99,715.000000,,2013-07-01 16:44:00,
2013-07-01 10:53:00,79.0,50.0,30.10,WNW,295,2.0,-999.0,37,-99.99,,,-99.99,749.000000,,2013-07-01 16:53:00,
2013-07-01 11:02:00,80.0,50.0,30.10,NNW,339,2.0,-999.0,35,-99.99,,,-99.99,780.000000,,2013-07-01 17:02:00,
2013-07-01 11:12:00,81.0,50.0,30.10,NNW,333,2.0,-999.0,34,-99.99,,,-99.99,814.000000,,2013-07-01 17:12:00,
2013-07-01 11:23:00,81.0,50.0,30.10,NNW,333,2.0,-999.0,34,-99.99,,,-99.99,814.000000,,2013-07-01 17:23:00,
2013-07-01 11:33:00,81.0,51.0,30.09,NNW,339,0.0,-999.0,35,-99.99,,,-99.99,838.000000,,2013-07-01 17:33:00,
2013-07-01 11:43:00,82.0,48.0,30.09,NE,49,2.0,-999.0,31,-99.99,,,-99.99,865.000000,,2013-07-01 17:43:00,
2013-07-01 11:53:00,82.0,48.0,30.09,NE,49,2.0,-999.0,31,-99.99,,,-99.99,865.000000,,2013-07-01 17:53:00,
2013-07-01 12:02:00,82.0,45.0,30.09,ENE,57,7.0,-999.0,27,-99.99,,,-99.99,882.000000,,2013-07-01 18:02:00,
2013-07-01 12:11:00,82.0,45.0,30.09,ENE,57,7.0,-999.0,27,-99.99,,,-99.99,882.000000,,2013-07-01 18:11:00,
2013-07-01 12:22:00,83.0,47.0,30.08,NNE,19,4.0,-999.0,29,-99.99,,,-99.99,891.000000,,2013-07-01 18:22:00,
2013-07-01 12:33:00,83.0,47.0,30.08,NNW,328,6.0,-999.0,29,-99.99,,,-99.99,921.000000,,2013-07-01 18:33:00,
2013-07-01 12:43:00,83.0,47.0,30.08,NNW,328,6.0,-999.0,29,-99.99,,,-99.99,921.000000,,2013-07-01 18:43:00,
2013-07-01 12:53:00,83.0,49.0,30.07,NNE,19,6.0,-999.0,31,-99.99,,,-99.99,935.000000,,2013-07-01 18:53:00,
2013-07-01 13:01:00,83.0,47.0,30.07,North,355,5.0,-999.0,29,-99.99,,,-99.99,942.000000,,2013-07-01 19:01:00,
2013-07-01 13:11:00,83.0,47.0,30.07,North,355,5.0,-999.0,29,-99.99,,,-99.99,942.000000,,2013-07-01 19:11:00,
2013-07-01 13:22:00,83.0,47.0,30.07,North,355,5.0,-999.0,29,-99.99,,,-99.99,942.000000,,2013-07-01 19:22:00,
2013-07-01 13:33:00,85.0,48.0,30.06,NE,42,1.0,-999.0,28,-99.99,,,-99.99,953.000000,,2013-07-01 19:33:00,
2013-07-01 13:44:00,85.0,48.0,30.06,NE,42,1.0,-999.0,28,-99.99,,,-99.99,953.000000,,2013-07-01 19:44:00,
2013-07-01 13:53:00,87.0,50.0,30.06,NW,314,4.0,-999.0,28,-99.99,,,-99.99,965.000000,,2013-07-01 19:53:00,
2013-07-01 14:02:00,87.0,49.0,30.05,NW,324,4.0,-999.0,27,-99.99,,,-99.99,875.000000,,2013-07-01 20:02:00,
2013-07-01 14:11:00,87.0,49.0,30.05,NW,324,4.0,-999.0,27,-99.99,,,-99.99,875.000000,,2013-07-01 20:11:00,
2013-07-01 14:22:00,87.0,48.0,30.05,NNW,327,6.0,-999.0,26,-99.99,,,-99.99,921.000000,,2013-07-01 20:22:00,
2013-07-01 14:34:00,87.0,50.0,30.04,NE,54,5.0,-999.0,28,-99.99,,,-99.99,875.000000,,2013-07-01 20:34:00,
2013-07-01 14:43:00,87.0,50.0,30.04,NE,54,5.0,-999.0,28,-99.99,,,-99.99,875.000000,,2013-07-01 20:43:00,
2013-07-01 14:52:00,87.0,49.0,30.04,ENE,68,5.0,-999.0,27,-99.99,,,-99.99,947.000000,,2013-07-01 20:52:00,
2013-07-01 15:01:00,88.0,49.0,30.04,NNW,347,5.0,-999.0,26,-99.99,,,-99.99,863.000000,,2013-07-01 21:01:00,
2013-07-01 15:11:00,88.0,49.0,30.04,NNW,347,5.0,-999.0,26,-99.99,,,-99.99,863.000000,,2013-07-01 21:11:00,
2013-07-01 15:24:00,87.0,48.0,30.03,NE,38,4.0,-999.0,26,-99.99,,,-99.99,895.000000,,2013-07-01 21:24:00,
2013-07-01 15:34:00,87.0,47.0,30.03,North,5,9.0,-999.0,25,-99.99,,,-99.99,889.000000,,2013-07-01 21:34:00,
2013-07-01 15:43:00,87.0,47.0,30.03,North,5,9.0,-999.0,25,-99.99,,,-99.99,889.000000,,2013-07-01 21:43:00,
2013-07-01 15:53:00,87.0,48.0,30.03,NE,51,8.0,-999.0,26,-99.99,,,-99.99,768.000000,,2013-07-01 21:53:00,
2013-07-01 16:01:00,88.0,47.0,30.03,NE,53,9.0,-999.0,24,-99.99,,,-99.99,784.000000,,2013-07-01 22:01:00,
2013-07-01 16:11:00,88.0,47.0,30.03,NE,53,9.0,-999.0,24,-99.99,,,-99.99,784.000000,,2013-07-01 22:11:00,
2013-07-01 16:23:00,87.0,47.0,30.03,NE,47,8.0,-999.0,25,-99.99,,,-99.99,703.000000,,2013-07-01 22:23:00,
2013-07-01 16:33:00,87.0,47.0,30.03,ENE,59,11.0,-999.0,25,-99.99,,,-99.99,645.000000,,2013-07-01 22:33:00,
2013-07-01 16:43:00,87.0,47.0,30.03,ENE,59,11.0,-999.0,25,-99.99,,,-99.99,645.000000,,2013-07-01 22:43:00,
2013-07-01 16:53:00,86.0,45.0,30.03,NE,53,11.0,-999.0,24,-99.99,,,-99.99,524.000000,,2013-07-01 22:53:00,
2013-07-01 17:01:00,88.0,47.0,30.03,NE,49,10.0,-999.0,24,-99.99,,,-99.99,714.000000,,2013-07-01 23:01:00,
2013-07-01 17:11:00,88.0,47.0,30.03,NE,49,10.0,-999.0,24,-99.99,,,-99.99,714.000000,,2013-07-01 23:11:00,
2013-07-01 17:22:00,88.0,47.0,30.02,WNW,289,5.0,-999.0,24,-99.99,,,-99.99,677.000000,,2013-07-01 23:22:00,
2013-07-01 17:33:00,87.0,45.0,30.02,ENE,64,10.0,-999.0,23,-99.99,,,-99.99,629.000000,,2013-07-01 23:33:00,
2013-07-01 17:44:00,87.0,45.0,30.02,ENE,64,10.0,-999.0,23,-99.99,,,-99.99,629.000000,,2013-07-01 23:44:00,
2013-07-01 17:53:00,86.0,44.0,30.02,NE,51,9.0,-999.0,23,-99.99,,,-99.99,178.000000,,2013-07-01 23:53:00,
2013-07-01 18:01:00,85.0,44.0,30.02,NE,45,7.0,-999.0,24,-99.99,,,-99.99,116.000000,,2013-07-02 00:01:00,
2013-07-01 18:12:00,85.0,44.0,30.02,NE,45,7.0,-999.0,24,-99.99,,,-99.99,116.000000,,2013-07-02 00:12:00,
2013-07-01 18:22:00,84.0,44.0,30.02,NE,48,7.0,-999.0,25,-99.99,,,-99.99,104.000000,,2013-07-02 00:22:00,
2013-07-01 18:33:00,84.0,45.0,30.02,NE,52,5.0,-999.0,26,-99.99,,,-99.99,125.000000,,2013-07-02 00:33:00,
2013-07-01 18:43:00,84.0,45.0,30.02,NE,52,5.0,-999.0,26,-99.99,,,-99.99,125.000000,,2013-07-02 00:43:00,
2013-07-01 18:53:00,84.0,44.0,30.02,NNE,33,8.0,-999.0,25,-99.99,,,-99.99,118.000000,,2013-07-02 00:53:00,
2013-07-01 19:01:00,84.0,43.0,30.02,NE,47,7.0,-999.0,24,-99.99,,,-99.99,111.000000,,2013-07-02 01:01:00,
2013-07-01 19:11:00,84.0,43.0,30.02,NE,47,7.0,-999.0,24,-99.99,,,-99.99,111.000000,,2013-07-02 01:11:00,
2013-07-01 19:22:00,83.0,41.0,30.02,NE,44,8.0,-999.0,23,-99.99,,,-99.99,77.000000,,2013-07-02 01:22:00,
2013-07-01 19:33:00,83.0,42.0,30.03,NE,44,9.0,-999.0,24,-99.99,,,-99.99,53.000000,,2013-07-02 01:33:00,
2013-07-01 19:43:00,83.0,42.0,30.03,NE,44,9.0,-999.0,24,-99.99,,,-99.99,53.000000,,2013-07-02 01:43:00,
2013-07-01 19:53:00,82.0,42.0,30.03,NNE,33,8.0,-999.0,24,-99.99,,,-99.99,47.000000,,2013-07-02 01:53:00,
2013-07-01 20:02:00,81.0,44.0,30.03,NE,46,7.0,-999.0,27,-99.99,,,-99.99,35.000000,,2013-07-02 02:02:00,
2013-07-01 20:11:00,81.0,44.0,30.03,NE,46,7.0,-999.0,27,-99.99,,,-99.99,35.000000,,2013-07-02 02:11:00,
2013-07-01 20:22:00,79.0,43.0,30.03,NE,44,6.0,-999.0,28,-99.99,,,-99.99,26.000000,,2013-07-02 02:22:00,
2013-07-01 20:33:00,79.0,42.0,30.03,NE,42,5.0,-999.0,27,-99.99,,,-99.99,14.000000,,2013-07-02 02:33:00,
2013-07-01 20:43:00,79.0,42.0,30.03,NE,42,5.0,-999.0,27,-99.99,,,-99.99,14.000000,,2013-07-02 02:43:00,
2013-07-01 20:53:00,78.0,42.0,30.03,NE,43,5.0,-999.0,28,-99.99,,,-99.99,5.000000,,2013-07-02 02:53:00,
2013-07-01 21:01:00,77.0,42.0,30.03,NE,46,6.0,-999.0,29,-99.99,,,-99.99,5.000000,,2013-07-02 03:01:00,
2013-07-01 21:12:00,77.0,42.0,30.03,NE,46,6.0,-999.0,29,-99.99,,,-99.99,5.000000,,2013-07-02 03:12:00,
2013-07-01 21:24:00,76.0,42.0,30.03,NNE,33,6.0,-999.0,30,-99.99,,,-99.99,0.000000,,2013-07-02 03:24:00,
2013-07-01 21:32:00,75.0,43.0,30.03,NNW,344,4.0,-999.0,32,-99.99,,,-99.99,0.000000,,2013-07-02 03:32:00,
2013-07-01 21:43:00,75.0,43.0,30.03,NNW,344,4.0,-999.0,32,-99.99,,,-99.99,0.000000,,2013-07-02 03:43:00,
2013-07-01 21:53:00,74.0,43.0,30.04,NE,55,4.0,-999.0,33,-99.99,,,-99.99,0.000000,,2013-07-02 03:53:00,
2013-07-01 22:02:00,74.0,43.0,30.05,ENE,64,6.0,-999.0,33,-99.99,,,-99.99,0.000000,,2013-07-02 04:02:00,
2013-07-01 22:11:00,74.0,43.0,30.05,ENE,64,6.0,-999.0,33,-99.99,,,-99.99,0.000000,,2013-07-02 04:11:00,
2013-07-01 22:22:00,74.0,43.0,30.05,ENE,64,6.0,-999.0,33,-99.99,,,-99.99,0.000000,,2013-07-02 04:22:00,
2013-07-01 22:32:00,74.0,43.0,30.05,ENE,64,6.0,-999.0,33,-99.99,,,-99.99,0.000000,,2013-07-02 04:32:00,
2013-07-01 22:42:00,74.0,43.0,30.05,ENE,64,6.0,-999.0,33,-99.99,,,-99.99,0.000000,,2013-07-02 04:42:00,
2013-07-01 23:01:00,78.0,43.0,30.06,ENE,78,8.0,-999.0,29,-99.99,,,-99.99,0.000000,,2013-07-02 05:01:00,
2013-07-01 23:11:00,77.0,42.0,30.07,ENE,69,7.0,-999.0,29,-99.99,,,-99.99,0.000000,,2013-07-02 05:11:00,
2013-07-01 23:22:00,75.0,41.0,30.07,ENE,65,6.0,-999.0,30,-99.99,,,-99.99,0.000000,,2013-07-02 05:22:00,
2013-07-01 23:32:00,75.0,41.0,30.07,ENE,65,6.0,-999.0,30,-99.99,,,-99.99,0.000000,,2013-07-02 05:32:00,
2013-07-01 23:43:00,74.0,42.0,30.07,NE,55,6.0,-999.0,32,-99.99,,,-99.99,0.000000,,2013-07-02 05:43:00,
2013-07-01 23:53:00,72.0,41.0,30.07,ENE,66,3.0,-999.0,33,-99.99,,,-99.99,0.000000,,2013-07-02 05:53:00,